sensor_id;sensor_type;location;lat;lon;timestamp;temperature;humidity
50544;DHT22;41176;44.032;20.900;2023-12-04T00:01:50;2.70;94.70
50544;DHT22;41176;44.032;20.900;2023-12-04T00:04:16;2.70;94.90
50544;DHT22;41176;44.032;20.900;2023-12-04T00:06:42;2.60;94.70
50544;DHT22;41176;44.032;20.900;2023-12-04T00:09:08;2.60;94.80
50544;DHT22;41176;44.032;20.900;2023-12-04T00:11:34;2.50;94.50
50544;DHT22;41176;44.032;20.900;2023-12-04T00:13:59;2.60;94.70
50544;DHT22;41176;44.032;20.900;2023-12-04T00:16:26;2.60;94.80
50544;DHT22;41176;44.032;20.900;2023-12-04T00:18:51;2.60;95.00
50544;DHT22;41176;44.032;20.900;2023-12-04T00:21:17;2.60;94.90
50544;DHT22;41176;44.032;20.900;2023-12-04T00:23:43;2.60;94.90
50544;DHT22;41176;44.032;20.900;2023-12-04T00:26:08;2.60;95.00
50544;DHT22;41176;44.032;20.900;2023-12-04T00:28:37;2.50;94.90
50544;DHT22;41176;44.032;20.900;2023-12-04T00:31:03;2.50;94.60
50544;DHT22;41176;44.032;20.900;2023-12-04T00:33:29;2.50;95.00
50544;DHT22;41176;44.032;20.900;2023-12-04T00:35:55;2.50;95.00
50544;DHT22;41176;44.032;20.900;2023-12-04T00:38:22;2.50;94.70
50544;DHT22;41176;44.032;20.900;2023-12-04T00:40:48;2.50;94.90
50544;DHT22;41176;44.032;20.900;2023-12-04T00:43:13;2.50;95.10
50544;DHT22;41176;44.032;20.900;2023-12-04T00:45:39;2.50;95.00
50544;DHT22;41176;44.032;20.900;2023-12-04T00:48:05;2.50;95.00
50544;DHT22;41176;44.032;20.900;2023-12-04T00:50:31;2.50;95.20
50544;DHT22;41176;44.032;20.900;2023-12-04T00:52:56;2.50;95.30
50544;DHT22;41176;44.032;20.900;2023-12-04T00:55:22;2.40;95.50
50544;DHT22;41176;44.032;20.900;2023-12-04T00:57:48;2.30;95.60
50544;DHT22;41176;44.032;20.900;2023-12-04T01:00:14;2.30;95.80
50544;DHT22;41176;44.032;20.900;2023-12-04T01:02:40;2.20;95.60
50544;DHT22;41176;44.032;20.900;2023-12-04T01:05:06;2.20;95.80
50544;DHT22;41176;44.032;20.900;2023-12-04T01:07:32;2.10;95.80
50544;DHT22;41176;44.032;20.900;2023-12-04T01:09:57;2.10;95.70
50544;DHT22;41176;44.032;20.900;2023-12-04T01:12:23;2.10;95.70
50544;DHT22;41176;44.032;20.900;2023-12-04T01:14:49;2.10;95.60
50544;DHT22;41176;44.032;20.900;2023-12-04T01:17:14;2.00;95.80
50544;DHT22;41176;44.032;20.900;2023-12-04T01:19:40;2.00;96.30
50544;DHT22;41176;44.032;20.900;2023-12-04T01:22:06;2.00;96.50
50544;DHT22;41176;44.032;20.900;2023-12-04T01:24:32;2.00;96.30
50544;DHT22;41176;44.032;20.900;2023-12-04T01:26:58;1.90;96.10
50544;DHT22;41176;44.032;20.900;2023-12-04T01:29:24;1.90;96.70
50544;DHT22;41176;44.032;20.900;2023-12-04T01:31:50;1.80;96.50
50544;DHT22;41176;44.032;20.900;2023-12-04T01:34:16;1.70;96.80
50544;DHT22;41176;44.032;20.900;2023-12-04T01:36:41;1.70;97.40
50544;DHT22;41176;44.032;20.900;2023-12-04T01:39:07;1.60;97.40
50544;DHT22;41176;44.032;20.900;2023-12-04T01:41:33;1.60;97.40
50544;DHT22;41176;44.032;20.900;2023-12-04T01:43:59;1.50;97.80
50544;DHT22;41176;44.032;20.900;2023-12-04T01:46:25;1.50;98.10
50544;DHT22;41176;44.032;20.900;2023-12-04T01:48:52;1.50;98.00
50544;DHT22;41176;44.032;20.900;2023-12-04T01:51:19;1.50;98.10
50544;DHT22;41176;44.032;20.900;2023-12-04T01:53:46;1.50;98.60
50544;DHT22;41176;44.032;20.900;2023-12-04T01:56:15;1.40;98.40
50544;DHT22;41176;44.032;20.900;2023-12-04T01:58:42;1.40;98.60
50544;DHT22;41176;44.032;20.900;2023-12-04T02:01:08;1.40;98.70
50544;DHT22;41176;44.032;20.900;2023-12-04T02:03:35;1.40;99.00
50544;DHT22;41176;44.032;20.900;2023-12-04T02:06:02;1.30;99.00
50544;DHT22;41176;44.032;20.900;2023-12-04T02:08:29;1.30;99.40
50544;DHT22;41176;44.032;20.900;2023-12-04T02:10:55;1.30;99.50
50544;DHT22;41176;44.032;20.900;2023-12-04T02:13:21;1.40;99.60
50544;DHT22;41176;44.032;20.900;2023-12-04T02:15:49;1.30;99.50
50544;DHT22;41176;44.032;20.900;2023-12-04T02:18:18;1.30;99.60
50544;DHT22;41176;44.032;20.900;2023-12-04T02:20:44;1.30;99.90
50544;DHT22;41176;44.032;20.900;2023-12-04T02:23:10;1.20;99.90
50544;DHT22;41176;44.032;20.900;2023-12-04T02:25:36;1.20;99.90
50544;DHT22;41176;44.032;20.900;2023-12-04T02:28:06;1.20;99.90
50544;DHT22;41176;44.032;20.900;2023-12-04T02:30:34;1.20;99.90
50544;DHT22;41176;44.032;20.900;2023-12-04T02:33:07;1.10;99.90
50544;DHT22;41176;44.032;20.900;2023-12-04T02:35:35;1.10;99.90
50544;DHT22;41176;44.032;20.900;2023-12-04T02:38:03;1.10;99.90
50544;DHT22;41176;44.032;20.900;2023-12-04T02:40:29;1.10;99.90
50544;DHT22;41176;44.032;20.900;2023-12-04T02:42:55;0.90;99.90
50544;DHT22;41176;44.032;20.900;2023-12-04T02:45:30;0.80;99.90
50544;DHT22;41176;44.032;20.900;2023-12-04T02:47:56;0.80;99.90
50544;DHT22;41176;44.032;20.900;2023-12-04T02:50:22;0.80;99.90
50544;DHT22;41176;44.032;20.900;2023-12-04T02:52:48;0.80;99.90
50544;DHT22;41176;44.032;20.900;2023-12-04T02:55:13;0.70;99.90
50544;DHT22;41176;44.032;20.900;2023-12-04T02:57:39;0.60;99.90
50544;DHT22;41176;44.032;20.900;2023-12-04T03:00:05;0.60;99.90
50544;DHT22;41176;44.032;20.900;2023-12-04T03:02:31;0.60;99.90
50544;DHT22;41176;44.032;20.900;2023-12-04T03:04:57;0.70;99.90
50544;DHT22;41176;44.032;20.900;2023-12-04T03:07:23;0.70;99.90
50544;DHT22;41176;44.032;20.900;2023-12-04T03:09:50;0.70;99.90
50544;DHT22;41176;44.032;20.900;2023-12-04T03:12:16;0.70;99.90
50544;DHT22;41176;44.032;20.900;2023-12-04T03:14:42;0.70;99.90
50544;DHT22;41176;44.032;20.900;2023-12-04T03:17:08;0.60;99.90
50544;DHT22;41176;44.032;20.900;2023-12-04T03:19:34;0.60;99.90
50544;DHT22;41176;44.032;20.900;2023-12-04T03:22:00;0.60;99.90
50544;DHT22;41176;44.032;20.900;2023-12-04T03:24:26;0.60;99.90
50544;DHT22;41176;44.032;20.900;2023-12-04T03:26:52;0.60;99.90
50544;DHT22;41176;44.032;20.900;2023-12-04T03:29:18;0.50;99.90
50544;DHT22;41176;44.032;20.900;2023-12-04T03:31:44;0.40;99.90
50544;DHT22;41176;44.032;20.900;2023-12-04T03:34:09;0.40;99.90
50544;DHT22;41176;44.032;20.900;2023-12-04T03:36:35;0.30;99.90
50544;DHT22;41176;44.032;20.900;2023-12-04T03:39:01;0.20;99.90
50544;DHT22;41176;44.032;20.900;2023-12-04T03:41:26;0.20;99.90
50544;DHT22;41176;44.032;20.900;2023-12-04T03:43:52;0.20;99.90
50544;DHT22;41176;44.032;20.900;2023-12-04T03:46:18;0.10;99.90
50544;DHT22;41176;44.032;20.900;2023-12-04T03:48:44;0.10;99.90
50544;DHT22;41176;44.032;20.900;2023-12-04T03:51:09;0.10;99.90
50544;DHT22;41176;44.032;20.900;2023-12-04T03:53:35;0.10;99.90
50544;DHT22;41176;44.032;20.900;2023-12-04T03:56:01;0.10;99.90
50544;DHT22;41176;44.032;20.900;2023-12-04T03:58:26;0.10;99.90
50544;DHT22;41176;44.032;20.900;2023-12-04T04:00:52;0.00;99.90
50544;DHT22;41176;44.032;20.900;2023-12-04T04:03:18;0.10;99.90
50544;DHT22;41176;44.032;20.900;2023-12-04T04:05:44;0.10;99.90
50544;DHT22;41176;44.032;20.900;2023-12-04T04:08:09;0.00;99.90
50544;DHT22;41176;44.032;20.900;2023-12-04T04:10:35;0.10;99.90
50544;DHT22;41176;44.032;20.900;2023-12-04T04:13:01;0.10;99.90
50544;DHT22;41176;44.032;20.900;2023-12-04T04:15:27;0.10;99.90
50544;DHT22;41176;44.032;20.900;2023-12-04T04:17:53;0.10;99.90
50544;DHT22;41176;44.032;20.900;2023-12-04T04:20:19;0.10;99.90
50544;DHT22;41176;44.032;20.900;2023-12-04T04:22:48;0.00;99.90
50544;DHT22;41176;44.032;20.900;2023-12-04T04:25:13;-0.10;99.90
50544;DHT22;41176;44.032;20.900;2023-12-04T04:27:39;-0.20;99.90
50544;DHT22;41176;44.032;20.900;2023-12-04T04:30:05;-0.30;99.90
50544;DHT22;41176;44.032;20.900;2023-12-04T04:32:31;-0.40;99.90
50544;DHT22;41176;44.032;20.900;2023-12-04T04:34:57;-0.50;99.90
50544;DHT22;41176;44.032;20.900;2023-12-04T04:37:23;-0.50;99.90
50544;DHT22;41176;44.032;20.900;2023-12-04T04:39:48;-0.50;99.90
50544;DHT22;41176;44.032;20.900;2023-12-04T04:42:14;-0.50;99.90
50544;DHT22;41176;44.032;20.900;2023-12-04T04:44:40;-0.50;99.90
50544;DHT22;41176;44.032;20.900;2023-12-04T04:47:06;-0.50;99.90
50544;DHT22;41176;44.032;20.900;2023-12-04T04:49:32;-0.50;99.90
50544;DHT22;41176;44.032;20.900;2023-12-04T04:51:58;-0.50;99.90
50544;DHT22;41176;44.032;20.900;2023-12-04T04:54:23;-0.60;99.90
50544;DHT22;41176;44.032;20.900;2023-12-04T04:56:49;-0.80;99.90
50544;DHT22;41176;44.032;20.900;2023-12-04T04:59:15;-0.70;99.90
50544;DHT22;41176;44.032;20.900;2023-12-04T05:01:40;-0.70;99.90
50544;DHT22;41176;44.032;20.900;2023-12-04T05:04:06;-0.90;99.90
50544;DHT22;41176;44.032;20.900;2023-12-04T05:06:32;-1.00;99.90
50544;DHT22;41176;44.032;20.900;2023-12-04T05:08:58;-1.00;99.90
50544;DHT22;41176;44.032;20.900;2023-12-04T05:11:24;-1.20;99.90
50544;DHT22;41176;44.032;20.900;2023-12-04T05:13:49;-1.20;99.90
50544;DHT22;41176;44.032;20.900;2023-12-04T05:16:15;-1.30;99.90
50544;DHT22;41176;44.032;20.900;2023-12-04T05:18:41;-1.30;99.90
50544;DHT22;41176;44.032;20.900;2023-12-04T05:21:10;-1.40;99.90
50544;DHT22;41176;44.032;20.900;2023-12-04T05:23:36;-1.40;99.90
50544;DHT22;41176;44.032;20.900;2023-12-04T05:26:03;-1.40;99.90
50544;DHT22;41176;44.032;20.900;2023-12-04T05:28:28;-1.50;99.90
50544;DHT22;41176;44.032;20.900;2023-12-04T05:30:54;-1.50;99.90
50544;DHT22;41176;44.032;20.900;2023-12-04T05:33:20;-1.60;99.90
50544;DHT22;41176;44.032;20.900;2023-12-04T05:35:48;-1.60;99.90
50544;DHT22;41176;44.032;20.900;2023-12-04T05:38:13;-1.60;99.90
50544;DHT22;41176;44.032;20.900;2023-12-04T05:40:39;-1.60;99.90
50544;DHT22;41176;44.032;20.900;2023-12-04T05:43:05;-1.60;99.90
50544;DHT22;41176;44.032;20.900;2023-12-04T05:45:31;-1.50;99.90
50544;DHT22;41176;44.032;20.900;2023-12-04T05:47:56;-1.50;99.90
50544;DHT22;41176;44.032;20.900;2023-12-04T05:50:22;-1.60;99.90
50544;DHT22;41176;44.032;20.900;2023-12-04T05:52:48;-1.60;99.90
50544;DHT22;41176;44.032;20.900;2023-12-04T05:55:14;-1.70;99.90
50544;DHT22;41176;44.032;20.900;2023-12-04T05:57:39;-1.70;99.90
50544;DHT22;41176;44.032;20.900;2023-12-04T06:00:06;-1.70;99.90
50544;DHT22;41176;44.032;20.900;2023-12-04T06:02:41;-1.70;99.90
50544;DHT22;41176;44.032;20.900;2023-12-04T06:05:07;-1.70;99.90
50544;DHT22;41176;44.032;20.900;2023-12-04T06:07:34;-1.80;99.90
50544;DHT22;41176;44.032;20.900;2023-12-04T06:10:00;-1.80;99.90
50544;DHT22;41176;44.032;20.900;2023-12-04T06:12:26;-1.70;99.90
50544;DHT22;41176;44.032;20.900;2023-12-04T06:14:51;-1.60;99.90
50544;DHT22;41176;44.032;20.900;2023-12-04T06:17:17;-1.70;99.90
50544;DHT22;41176;44.032;20.900;2023-12-04T06:19:43;-1.70;99.90
50544;DHT22;41176;44.032;20.900;2023-12-04T06:22:08;-1.70;99.90
50544;DHT22;41176;44.032;20.900;2023-12-04T06:24:34;-1.60;99.90
50544;DHT22;41176;44.032;20.900;2023-12-04T06:27:00;-1.50;99.90
50544;DHT22;41176;44.032;20.900;2023-12-04T06:29:27;-1.50;99.90
50544;DHT22;41176;44.032;20.900;2023-12-04T06:31:53;-1.40;99.90
50544;DHT22;41176;44.032;20.900;2023-12-04T06:34:19;-1.30;99.90
50544;DHT22;41176;44.032;20.900;2023-12-04T06:36:45;-1.20;99.90
50544;DHT22;41176;44.032;20.900;2023-12-04T06:39:11;-1.10;99.90
50544;DHT22;41176;44.032;20.900;2023-12-04T06:41:41;-1.00;99.90
50544;DHT22;41176;44.032;20.900;2023-12-04T06:44:08;-0.90;99.90
50544;DHT22;41176;44.032;20.900;2023-12-04T06:46:37;-0.90;99.90
50544;DHT22;41176;44.032;20.900;2023-12-04T06:49:04;-0.70;99.90
50544;DHT22;41176;44.032;20.900;2023-12-04T06:51:31;-0.60;99.90
50544;DHT22;41176;44.032;20.900;2023-12-04T06:53:58;-0.60;99.90
50544;DHT22;41176;44.032;20.900;2023-12-04T06:56:23;-0.60;99.90
50544;DHT22;41176;44.032;20.900;2023-12-04T06:58:49;-0.70;99.90
50544;DHT22;41176;44.032;20.900;2023-12-04T07:01:15;-0.70;99.90
50544;DHT22;41176;44.032;20.900;2023-12-04T07:03:41;-0.60;99.90
50544;DHT22;41176;44.032;20.900;2023-12-04T07:06:07;-0.50;99.90
50544;DHT22;41176;44.032;20.900;2023-12-04T07:08:32;-0.40;99.90
50544;DHT22;41176;44.032;20.900;2023-12-04T07:10:58;-0.20;99.90
50544;DHT22;41176;44.032;20.900;2023-12-04T07:13:24;-0.10;99.90
50544;DHT22;41176;44.032;20.900;2023-12-04T07:15:49;0.00;99.90
50544;DHT22;41176;44.032;20.900;2023-12-04T07:18:15;0.10;99.90
50544;DHT22;41176;44.032;20.900;2023-12-04T07:20:41;0.20;99.90
50544;DHT22;41176;44.032;20.900;2023-12-04T07:23:06;0.20;99.90
50544;DHT22;41176;44.032;20.900;2023-12-04T07:25:33;0.40;99.90
50544;DHT22;41176;44.032;20.900;2023-12-04T07:27:58;0.50;99.90
50544;DHT22;41176;44.032;20.900;2023-12-04T07:30:24;0.70;99.90
50544;DHT22;41176;44.032;20.900;2023-12-04T07:32:50;0.90;99.90
50544;DHT22;41176;44.032;20.900;2023-12-04T07:35:17;1.10;99.90
50544;DHT22;41176;44.032;20.900;2023-12-04T07:37:44;1.20;99.90
50544;DHT22;41176;44.032;20.900;2023-12-04T07:40:10;1.30;99.90
50544;DHT22;41176;44.032;20.900;2023-12-04T07:42:36;1.40;99.90
50544;DHT22;41176;44.032;20.900;2023-12-04T07:45:02;1.40;99.90
50544;DHT22;41176;44.032;20.900;2023-12-04T07:47:29;1.30;99.90
50544;DHT22;41176;44.032;20.900;2023-12-04T07:49:54;1.40;99.90
50544;DHT22;41176;44.032;20.900;2023-12-04T07:52:20;1.40;99.90
50544;DHT22;41176;44.032;20.900;2023-12-04T07:54:46;1.60;99.90
50544;DHT22;41176;44.032;20.900;2023-12-04T07:57:12;1.70;99.90
50544;DHT22;41176;44.032;20.900;2023-12-04T07:59:37;1.90;99.90
50544;DHT22;41176;44.032;20.900;2023-12-04T08:02:03;2.00;99.90
50544;DHT22;41176;44.032;20.900;2023-12-04T08:04:29;2.20;99.90
50544;DHT22;41176;44.032;20.900;2023-12-04T08:06:55;2.10;99.60
50544;DHT22;41176;44.032;20.900;2023-12-04T08:09:20;2.30;99.50
50544;DHT22;41176;44.032;20.900;2023-12-04T08:11:47;2.40;98.60
50544;DHT22;41176;44.032;20.900;2023-12-04T08:14:12;2.70;98.20
50544;DHT22;41176;44.032;20.900;2023-12-04T08:16:38;3.00;96.70
50544;DHT22;41176;44.032;20.900;2023-12-04T08:19:04;3.10;96.10
50544;DHT22;41176;44.032;20.900;2023-12-04T08:21:29;3.50;95.20
50544;DHT22;41176;44.032;20.900;2023-12-04T08:23:55;4.90;93.50
50544;DHT22;41176;44.032;20.900;2023-12-04T08:26:25;6.70;87.90
50544;DHT22;41176;44.032;20.900;2023-12-04T08:28:51;8.60;74.60
50544;DHT22;41176;44.032;20.900;2023-12-04T08:31:17;10.20;69.00
50544;DHT22;41176;44.032;20.900;2023-12-04T08:33:43;11.70;62.30
50544;DHT22;41176;44.032;20.900;2023-12-04T08:36:10;12.70;58.90
50544;DHT22;41176;44.032;20.900;2023-12-04T08:38:36;13.90;55.20
50544;DHT22;41176;44.032;20.900;2023-12-04T08:41:03;14.50;52.60
50544;DHT22;41176;44.032;20.900;2023-12-04T08:43:29;15.10;50.70
50544;DHT22;41176;44.032;20.900;2023-12-04T08:45:55;15.50;49.60
50544;DHT22;41176;44.032;20.900;2023-12-04T08:48:21;15.50;48.00
50544;DHT22;41176;44.032;20.900;2023-12-04T08:50:47;15.90;48.70
50544;DHT22;41176;44.032;20.900;2023-12-04T08:53:13;15.70;47.40
50544;DHT22;41176;44.032;20.900;2023-12-04T08:55:39;16.60;48.40
50544;DHT22;41176;44.032;20.900;2023-12-04T08:58:05;17.00;46.10
50544;DHT22;41176;44.032;20.900;2023-12-04T09:00:32;17.50;45.00
50544;DHT22;41176;44.032;20.900;2023-12-04T09:02:58;17.70;43.90
50544;DHT22;41176;44.032;20.900;2023-12-04T09:05:24;17.80;44.00
50544;DHT22;41176;44.032;20.900;2023-12-04T09:07:49;17.90;43.30
50544;DHT22;41176;44.032;20.900;2023-12-04T09:10:15;18.30;43.00
50544;DHT22;41176;44.032;20.900;2023-12-04T09:12:42;19.20;43.60
50544;DHT22;41176;44.032;20.900;2023-12-04T09:15:08;19.80;40.90
50544;DHT22;41176;44.032;20.900;2023-12-04T09:17:34;19.10;40.90
50544;DHT22;41176;44.032;20.900;2023-12-04T09:19:59;19.60;41.20
50544;DHT22;41176;44.032;20.900;2023-12-04T09:22:25;20.10;39.60
50544;DHT22;41176;44.032;20.900;2023-12-04T09:24:51;20.30;39.80
50544;DHT22;41176;44.032;20.900;2023-12-04T09:27:17;21.10;40.00
50544;DHT22;41176;44.032;20.900;2023-12-04T09:29:42;21.60;38.60
50544;DHT22;41176;44.032;20.900;2023-12-04T09:32:09;21.80;37.20
50544;DHT22;41176;44.032;20.900;2023-12-04T09:34:35;20.80;37.50
50544;DHT22;41176;44.032;20.900;2023-12-04T09:37:01;20.40;38.70
50544;DHT22;41176;44.032;20.900;2023-12-04T09:39:28;20.80;39.10
50544;DHT22;41176;44.032;20.900;2023-12-04T09:41:55;20.80;38.10
50544;DHT22;41176;44.032;20.900;2023-12-04T09:44:22;21.20;37.20
50544;DHT22;41176;44.032;20.900;2023-12-04T09:46:50;21.50;38.10
50544;DHT22;41176;44.032;20.900;2023-12-04T09:49:16;22.10;37.80
50544;DHT22;41176;44.032;20.900;2023-12-04T09:51:44;22.30;36.70
50544;DHT22;41176;44.032;20.900;2023-12-04T09:54:11;22.30;35.90
50544;DHT22;41176;44.032;20.900;2023-12-04T09:56:37;22.70;36.20
50544;DHT22;41176;44.032;20.900;2023-12-04T09:59:06;21.10;36.50
50544;DHT22;41176;44.032;20.900;2023-12-04T10:01:33;20.80;36.90
50544;DHT22;41176;44.032;20.900;2023-12-04T10:04:02;21.70;37.60
50544;DHT22;41176;44.032;20.900;2023-12-04T10:06:31;22.40;36.60
50544;DHT22;41176;44.032;20.900;2023-12-04T10:08:57;21.70;35.70
50544;DHT22;41176;44.032;20.900;2023-12-04T10:11:26;21.40;36.40
50544;DHT22;41176;44.032;20.900;2023-12-04T10:13:56;21.40;37.20
50544;DHT22;41176;44.032;20.900;2023-12-04T10:16:36;22.10;36.00
50544;DHT22;41176;44.032;20.900;2023-12-04T10:19:15;22.90;36.10
50544;DHT22;41176;44.032;20.900;2023-12-04T10:21:42;23.70;35.50
50544;DHT22;41176;44.032;20.900;2023-12-04T10:24:09;23.80;33.90
50544;DHT22;41176;44.032;20.900;2023-12-04T10:26:35;22.80;34.70
50544;DHT22;41176;44.032;20.900;2023-12-04T10:29:02;22.00;35.00
50544;DHT22;41176;44.032;20.900;2023-12-04T10:31:33;21.70;36.40
50544;DHT22;41176;44.032;20.900;2023-12-04T10:33:59;22.40;36.40
50544;DHT22;41176;44.032;20.900;2023-12-04T10:36:25;23.00;34.70
50544;DHT22;41176;44.032;20.900;2023-12-04T10:39:00;23.20;35.30
50544;DHT22;41176;44.032;20.900;2023-12-04T10:41:26;23.80;35.20
50544;DHT22;41176;44.032;20.900;2023-12-04T10:43:53;24.10;34.70
50544;DHT22;41176;44.032;20.900;2023-12-04T10:46:21;23.80;34.60
50544;DHT22;41176;44.032;20.900;2023-12-04T10:48:47;23.00;35.50
50544;DHT22;41176;44.032;20.900;2023-12-04T10:51:15;22.50;35.80
50544;DHT22;41176;44.032;20.900;2023-12-04T10:53:42;22.10;37.40
50544;DHT22;41176;44.032;20.900;2023-12-04T10:56:18;22.20;36.40
50544;DHT22;41176;44.032;20.900;2023-12-04T10:58:48;22.00;36.50
50544;DHT22;41176;44.032;20.900;2023-12-04T11:01:17;20.60;37.10
50544;DHT22;41176;44.032;20.900;2023-12-04T11:03:53;19.70;39.00
50544;DHT22;41176;44.032;20.900;2023-12-04T11:06:22;20.10;39.30
50544;DHT22;41176;44.032;20.900;2023-12-04T11:08:49;20.50;38.20
50544;DHT22;41176;44.032;20.900;2023-12-04T11:11:26;20.90;37.20
50544;DHT22;41176;44.032;20.900;2023-12-04T11:13:54;21.00;38.00
50544;DHT22;41176;44.032;20.900;2023-12-04T11:16:51;20.80;37.80
50544;DHT22;41176;44.032;20.900;2023-12-04T11:19:29;21.10;38.30
50544;DHT22;41176;44.032;20.900;2023-12-04T11:21:58;20.90;37.40
50544;DHT22;41176;44.032;20.900;2023-12-04T11:24:24;20.60;39.20
50544;DHT22;41176;44.032;20.900;2023-12-04T11:26:50;19.80;38.20
50544;DHT22;41176;44.032;20.900;2023-12-04T11:29:17;17.90;39.00
50544;DHT22;41176;44.032;20.900;2023-12-04T11:31:43;16.30;41.40
50544;DHT22;41176;44.032;20.900;2023-12-04T11:34:12;15.00;42.90
50544;DHT22;41176;44.032;20.900;2023-12-04T11:36:38;13.60;45.10
50544;DHT22;41176;44.032;20.900;2023-12-04T11:39:09;13.00;46.40
50544;DHT22;41176;44.032;20.900;2023-12-04T11:41:40;12.60;47.30
50544;DHT22;41176;44.032;20.900;2023-12-04T11:44:12;13.10;46.40
50544;DHT22;41176;44.032;20.900;2023-12-04T11:46:43;13.80;44.50
50544;DHT22;41176;44.032;20.900;2023-12-04T11:49:29;14.20;44.20
50544;DHT22;41176;44.032;20.900;2023-12-04T11:51:59;14.10;43.80
50544;DHT22;41176;44.032;20.900;2023-12-04T11:54:27;14.40;44.20
50544;DHT22;41176;44.032;20.900;2023-12-04T11:59:38;14.80;43.30
50544;DHT22;41176;44.032;20.900;2023-12-04T12:02:07;14.80;44.60
50544;DHT22;41176;44.032;20.900;2023-12-04T12:04:33;14.50;43.50
50544;DHT22;41176;44.032;20.900;2023-12-04T12:07:00;14.40;43.50
50544;DHT22;41176;44.032;20.900;2023-12-04T12:09:29;14.10;43.50
50544;DHT22;41176;44.032;20.900;2023-12-04T12:11:54;13.60;45.60
50544;DHT22;41176;44.032;20.900;2023-12-04T12:14:21;13.40;45.70
50544;DHT22;41176;44.032;20.900;2023-12-04T12:16:47;13.30;46.60
50544;DHT22;41176;44.032;20.900;2023-12-04T12:19:13;13.20;46.60
50544;DHT22;41176;44.032;20.900;2023-12-04T12:21:38;12.90;46.60
50544;DHT22;41176;44.032;20.900;2023-12-04T12:24:06;12.70;47.70
50544;DHT22;41176;44.032;20.900;2023-12-04T12:26:33;12.40;47.30
50544;DHT22;41176;44.032;20.900;2023-12-04T12:28:58;12.30;48.20
50544;DHT22;41176;44.032;20.900;2023-12-04T12:31:24;12.10;48.50
50544;DHT22;41176;44.032;20.900;2023-12-04T12:33:50;11.90;48.80
50544;DHT22;41176;44.032;20.900;2023-12-04T12:36:17;11.80;49.60
50544;DHT22;41176;44.032;20.900;2023-12-04T12:38:45;11.50;50.20
50544;DHT22;41176;44.032;20.900;2023-12-04T12:41:19;11.20;50.80
50544;DHT22;41176;44.032;20.900;2023-12-04T12:43:45;11.00;51.10
50544;DHT22;41176;44.032;20.900;2023-12-04T12:46:12;10.80;51.20
50544;DHT22;41176;44.032;20.900;2023-12-04T12:48:38;10.60;51.60
50544;DHT22;41176;44.032;20.900;2023-12-04T12:51:04;10.30;52.40
50544;DHT22;41176;44.032;20.900;2023-12-04T12:53:33;10.00;52.80
50544;DHT22;41176;44.032;20.900;2023-12-04T12:55:59;9.80;54.10
50544;DHT22;41176;44.032;20.900;2023-12-04T12:58:26;9.60;55.40
50544;DHT22;41176;44.032;20.900;2023-12-04T13:00:52;9.30;54.90
50544;DHT22;41176;44.032;20.900;2023-12-04T13:03:19;9.10;55.30
50544;DHT22;41176;44.032;20.900;2023-12-04T13:05:45;8.80;56.10
50544;DHT22;41176;44.032;20.900;2023-12-04T13:08:11;8.50;57.10
50544;DHT22;41176;44.032;20.900;2023-12-04T13:10:37;8.40;58.00
50544;DHT22;41176;44.032;20.900;2023-12-04T13:13:03;8.10;58.00
50544;DHT22;41176;44.032;20.900;2023-12-04T13:15:29;8.00;58.40
50544;DHT22;41176;44.032;20.900;2023-12-04T13:17:55;7.80;58.50
50544;DHT22;41176;44.032;20.900;2023-12-04T13:20:23;7.70;58.60
50544;DHT22;41176;44.032;20.900;2023-12-04T13:22:49;7.70;57.70
50544;DHT22;41176;44.032;20.900;2023-12-04T13:25:14;7.60;57.50
50544;DHT22;41176;44.032;20.900;2023-12-04T13:27:40;7.50;58.80
50544;DHT22;41176;44.032;20.900;2023-12-04T13:30:07;7.40;59.20
50544;DHT22;41176;44.032;20.900;2023-12-04T13:32:39;7.30;59.40
50544;DHT22;41176;44.032;20.900;2023-12-04T13:35:05;7.30;59.60
50544;DHT22;41176;44.032;20.900;2023-12-04T13:37:34;7.20;59.90
50544;DHT22;41176;44.032;20.900;2023-12-04T13:40:11;7.20;60.00
50544;DHT22;41176;44.032;20.900;2023-12-04T13:42:42;7.10;60.20
50544;DHT22;41176;44.032;20.900;2023-12-04T13:45:26;7.00;60.90
50544;DHT22;41176;44.032;20.900;2023-12-04T13:47:52;7.00;60.10
50544;DHT22;41176;44.032;20.900;2023-12-04T13:50:18;6.90;61.60
50544;DHT22;41176;44.032;20.900;2023-12-04T13:52:44;6.80;62.00
50544;DHT22;41176;44.032;20.900;2023-12-04T13:55:10;6.70;62.30
50544;DHT22;41176;44.032;20.900;2023-12-04T13:57:47;6.60;62.30
50544;DHT22;41176;44.032;20.900;2023-12-04T14:00:26;6.60;62.40
50544;DHT22;41176;44.032;20.900;2023-12-04T14:02:52;6.40;62.30
50544;DHT22;41176;44.032;20.900;2023-12-04T14:05:32;6.30;62.60
50544;DHT22;41176;44.032;20.900;2023-12-04T14:07:58;6.20;62.30
50544;DHT22;41176;44.032;20.900;2023-12-04T14:10:27;6.30;62.40
50544;DHT22;41176;44.032;20.900;2023-12-04T14:12:54;6.30;62.90
50544;DHT22;41176;44.032;20.900;2023-12-04T14:15:20;6.20;62.60
50544;DHT22;41176;44.032;20.900;2023-12-04T14:17:45;6.20;62.80
50544;DHT22;41176;44.032;20.900;2023-12-04T14:20:14;6.20;62.80
50544;DHT22;41176;44.032;20.900;2023-12-04T14:22:44;6.20;62.60
50544;DHT22;41176;44.032;20.900;2023-12-04T14:25:13;6.10;63.00
50544;DHT22;41176;44.032;20.900;2023-12-04T14:27:39;6.00;62.80
50544;DHT22;41176;44.032;20.900;2023-12-04T14:30:08;5.80;62.50
50544;DHT22;41176;44.032;20.900;2023-12-04T14:32:35;5.80;62.90
50544;DHT22;41176;44.032;20.900;2023-12-04T14:35:02;5.70;61.00
50544;DHT22;41176;44.032;20.900;2023-12-04T14:37:28;5.60;59.80
50544;DHT22;41176;44.032;20.900;2023-12-04T14:39:54;5.60;59.50
50544;DHT22;41176;44.032;20.900;2023-12-04T14:42:20;5.60;59.20
50544;DHT22;41176;44.032;20.900;2023-12-04T14:44:45;5.50;59.80
50544;DHT22;41176;44.032;20.900;2023-12-04T14:47:11;5.50;60.40
50544;DHT22;41176;44.032;20.900;2023-12-04T14:49:37;5.40;60.80
50544;DHT22;41176;44.032;20.900;2023-12-04T14:52:03;5.30;60.90
50544;DHT22;41176;44.032;20.900;2023-12-04T14:54:31;5.30;61.20
50544;DHT22;41176;44.032;20.900;2023-12-04T14:57:23;5.30;62.00
50544;DHT22;41176;44.032;20.900;2023-12-04T14:59:54;5.20;61.50
50544;DHT22;41176;44.032;20.900;2023-12-04T15:02:36;5.10;61.50
50544;DHT22;41176;44.032;20.900;2023-12-04T15:05:05;5.00;62.20
50544;DHT22;41176;44.032;20.900;2023-12-04T15:07:49;4.90;63.40
50544;DHT22;41176;44.032;20.900;2023-12-04T15:10:20;4.80;63.20
50544;DHT22;41176;44.032;20.900;2023-12-04T15:13:15;4.80;64.20
50544;DHT22;41176;44.032;20.900;2023-12-04T15:16:01;4.60;64.80
50544;DHT22;41176;44.032;20.900;2023-12-04T15:18:38;4.60;65.40
50544;DHT22;41176;44.032;20.900;2023-12-04T15:21:04;4.60;65.90
50544;DHT22;41176;44.032;20.900;2023-12-04T15:23:31;4.60;65.90
50544;DHT22;41176;44.032;20.900;2023-12-04T15:25:57;4.50;66.20
50544;DHT22;41176;44.032;20.900;2023-12-04T15:28:24;4.60;66.30